createdAt,value
2018-05-10T00:00:02.650Z,16.7
2018-05-10T00:05:02.805Z,16.7
2018-05-10T00:10:02.461Z,16.7
2018-05-10T00:15:03.108Z,16.7
2018-05-10T00:20:02.705Z,16.7
2018-05-10T00:25:02.563Z,16.3
2018-05-10T00:30:03.161Z,16.3
2018-05-10T00:35:02.735Z,16.2
2018-05-10T00:40:03.319Z,16.2
2018-05-10T00:45:02.874Z,16.2
2018-05-10T00:50:02.453Z,16.2
2018-05-10T00:55:02.932Z,16.0
2018-05-10T01:00:02.445Z,15.8
2018-05-10T01:05:03.050Z,15.8
2018-05-10T01:10:02.572Z,15.8
2018-05-10T01:15:03.090Z,15.8
2018-05-10T01:20:02.598Z,15.8
2018-05-10T01:25:03.177Z,15.8
2018-05-10T01:30:02.700Z,15.6
2018-05-10T01:35:03.274Z,15.6
2018-05-10T01:40:02.819Z,15.3
2018-05-10T01:45:03.367Z,15.5
2018-05-10T01:50:02.981Z,15.3
2018-05-10T01:55:02.559Z,15.3
2018-05-10T02:00:03.082Z,15.3
2018-05-10T02:05:02.577Z,15.3
2018-05-10T02:10:03.104Z,15.3
2018-05-10T02:15:02.601Z,15.1
2018-05-10T02:20:03.155Z,15.1
2018-05-10T02:25:02.644Z,15.0
2018-05-10T02:30:03.209Z,15.0
2018-05-10T02:35:02.730Z,14.8
2018-05-10T02:40:03.223Z,14.6
2018-05-10T02:45:02.955Z,14.3
2018-05-10T02:50:03.030Z,14.3
2018-05-10T02:55:02.569Z,14.1
2018-05-10T03:00:03.523Z,14.0
2018-05-10T03:05:03.050Z,13.8
2018-05-10T03:10:02.658Z,13.8
2018-05-10T03:15:03.232Z,13.8
2018-05-10T03:20:02.871Z,13.6
2018-05-10T03:25:02.448Z,13.6
2018-05-10T03:30:03.049Z,13.6
2018-05-10T03:35:02.584Z,13.6
2018-05-10T03:40:03.278Z,13.6
2018-05-10T03:45:02.756Z,13.6
2018-05-10T03:50:02.560Z,13.6
2018-05-10T03:55:03.031Z,12.8
2018-05-10T04:00:02.603Z,12.3
2018-05-10T04:05:03.292Z,11.8
2018-05-10T04:10:02.883Z,12.0
2018-05-10T04:15:02.418Z,11.8
2018-05-10T04:20:03.081Z,11.6
2018-05-10T04:25:02.544Z,11.8
2018-05-10T04:30:02.978Z,12.0
2018-05-10T04:35:02.601Z,11.8
2018-05-10T04:40:03.167Z,12.0
2018-05-10T04:45:02.658Z,12.0
2018-05-10T04:50:03.213Z,12.0
2018-05-10T04:55:02.781Z,12.1
2018-05-10T05:00:03.297Z,12.0
2018-05-10T05:05:02.825Z,12.1
2018-05-10T05:10:02.404Z,12.0
2018-05-10T05:15:03.002Z,12.1
2018-05-10T05:20:02.606Z,12.1
2018-05-10T05:25:03.182Z,12.1
2018-05-10T05:30:02.707Z,12.3
2018-05-10T05:35:03.397Z,12.1
2018-05-10T05:40:02.898Z,12.1
2018-05-10T05:45:02.620Z,12.0
2018-05-10T05:50:03.248Z,11.8
2018-05-10T05:55:02.768Z,12.0
2018-05-10T06:00:02.701Z,11.8
2018-05-10T06:05:03.185Z,12.1
2018-05-10T06:10:02.791Z,12.1
2018-05-10T06:15:03.356Z,12.6
2018-05-10T06:20:02.893Z,12.1
2018-05-10T06:25:02.678Z,12.1
2018-05-10T06:30:03.260Z,12.0
2018-05-10T06:35:02.823Z,12.0
2018-05-10T06:40:02.462Z,12.1
2018-05-10T06:45:03.016Z,12.5
2018-05-10T06:50:02.601Z,12.3
2018-05-10T06:55:03.220Z,12.8
2018-05-10T07:00:03.008Z,12.6
2018-05-10T07:05:02.634Z,12.3
2018-05-10T07:10:03.456Z,12.5
2018-05-10T07:15:02.429Z,12.6
2018-05-10T07:25:02.485Z,14.3
2018-05-10T07:30:02.576Z,15.0
2018-05-10T07:35:03.153Z,15.0
2018-05-10T07:40:02.664Z,15.1
2018-05-10T07:45:03.170Z,15.3
2018-05-10T07:50:02.693Z,15.6
2018-05-10T07:55:03.224Z,15.8
2018-05-10T08:00:02.783Z,16.0
2018-05-10T08:05:03.371Z,15.8
2018-05-10T08:10:03.082Z,15.3
2018-05-10T08:15:02.805Z,15.3
2018-05-10T08:20:02.383Z,15.8
2018-05-10T08:25:02.942Z,16.3
2018-05-10T08:30:02.450Z,16.6
2018-05-10T08:35:03.018Z,16.2
2018-05-10T08:40:02.544Z,15.8
2018-05-10T08:45:03.125Z,16.7
2018-05-10T08:50:03.023Z,16.0
2018-05-10T08:55:02.588Z,17.2
2018-05-10T09:00:03.258Z,17.2
2018-05-10T09:05:03.046Z,17.7
2018-05-10T09:10:02.665Z,17.1
2018-05-10T09:15:03.220Z,18.5
2018-05-10T09:20:02.750Z,17.7
2018-05-10T09:25:03.309Z,17.2
2018-05-10T09:30:02.839Z,16.3
2018-05-10T09:35:03.336Z,16.6
2018-05-10T09:40:02.996Z,15.8
2018-05-10T09:45:02.677Z,16.0
2018-05-10T09:50:03.278Z,16.2
2018-05-10T09:55:02.812Z,17.8
2018-05-10T10:00:03.328Z,17.8
2018-05-10T10:05:02.958Z,18.2
2018-05-10T10:10:02.591Z,18.8
2018-05-10T10:15:03.275Z,17.7
2018-05-10T10:20:02.835Z,17.7
2018-05-10T10:25:02.381Z,18.5
2018-05-10T10:30:02.926Z,17.7
2018-05-10T10:35:02.842Z,18.2
2018-05-10T10:40:02.498Z,17.7
2018-05-10T10:45:02.448Z,18.5
2018-05-10T10:50:03.272Z,17.5
2018-05-10T10:55:02.794Z,17.2
2018-05-10T11:00:03.424Z,17.2
2018-05-10T11:05:02.763Z,16.7
2018-05-10T11:10:02.424Z,15.8
2018-05-10T11:15:02.960Z,15.8
2018-05-10T11:20:02.912Z,15.3
2018-05-10T11:25:02.473Z,15.6
2018-05-10T11:30:03.020Z,15.0
2018-05-10T11:35:02.533Z,14.8
2018-05-10T11:40:03.269Z,15.0
2018-05-10T11:45:02.720Z,14.8
2018-05-10T11:50:03.266Z,15.1
2018-05-10T11:55:02.793Z,14.8
2018-05-10T12:00:03.317Z,15.1
2018-05-10T12:05:02.869Z,14.8
2018-05-10T12:10:02.451Z,15.0
2018-05-10T12:15:03.005Z,15.1
2018-05-10T12:20:02.791Z,15.5
2018-05-10T12:25:03.481Z,15.5
2018-05-10T12:30:03.097Z,15.3
2018-05-10T12:35:02.729Z,15.5
2018-05-10T12:40:03.327Z,15.8
2018-05-10T12:45:02.955Z,16.3
2018-05-10T12:50:02.503Z,16.6
2018-05-10T12:55:03.079Z,16.6
2018-05-10T13:00:02.653Z,16.3
2018-05-10T13:05:03.184Z,16.0
2018-05-10T13:10:02.717Z,16.2
2018-05-10T13:15:03.301Z,16.2
2018-05-10T13:20:02.855Z,16.2
2018-05-10T13:25:02.477Z,16.6
2018-05-10T13:30:03.131Z,16.7
2018-05-10T13:35:02.686Z,16.7
2018-05-10T13:40:03.310Z,16.2
2018-05-10T13:45:02.830Z,16.2
2018-05-10T13:50:02.452Z,16.0
2018-05-10T13:55:02.944Z,16.2
2018-05-10T14:00:02.472Z,16.6
2018-05-10T14:05:03.154Z,16.7
2018-05-10T14:10:02.699Z,17.2
2018-05-10T14:15:03.233Z,17.2
2018-05-10T14:20:02.834Z,17.3
2018-05-10T14:25:02.618Z,17.5
2018-05-10T14:30:03.306Z,17.8
2018-05-10T14:35:02.844Z,17.8
2018-05-10T14:40:02.633Z,17.7
2018-05-10T14:45:03.212Z,17.5
2018-05-10T14:50:02.802Z,17.5
2018-05-10T14:55:03.455Z,18.1
2018-05-10T15:00:02.940Z,18.1
2018-05-10T15:05:02.509Z,18.1
2018-05-10T15:10:03.133Z,17.7
2018-05-10T15:15:02.858Z,18.8
2018-05-10T15:20:02.412Z,18.2
2018-05-10T15:25:02.940Z,18.1
2018-05-10T15:30:02.536Z,17.2
2018-05-10T15:35:03.235Z,18.8
2018-05-10T15:40:02.801Z,19.1
2018-05-10T15:45:03.304Z,19.1
2018-05-10T15:50:02.758Z,18.7
2018-05-10T15:55:03.226Z,18.2
2018-05-10T16:00:02.671Z,17.1
2018-05-10T16:05:03.235Z,17.8
2018-05-10T16:10:02.852Z,18.2
2018-05-10T16:15:02.483Z,18.6
2018-05-10T16:20:03.000Z,18.6
2018-05-10T16:25:02.620Z,18.7
2018-05-10T16:30:03.222Z,17.7
2018-05-10T16:35:02.816Z,18.2
2018-05-10T16:40:02.430Z,18.6
2018-05-10T16:45:03.001Z,19.1
2018-05-10T16:50:02.607Z,19.2
2018-05-10T16:55:03.107Z,18.8
2018-05-10T17:00:02.687Z,18.2
2018-05-10T17:05:03.272Z,18.6
2018-05-10T17:10:02.770Z,18.5
2018-05-10T17:15:03.281Z,19.1
2018-05-10T17:20:02.870Z,17.3
2018-05-10T17:25:02.510Z,17.0
2018-05-10T17:30:03.027Z,17.7
2018-05-10T17:35:02.517Z,17.7
2018-05-10T17:40:03.058Z,17.7
2018-05-10T17:45:02.553Z,17.7
2018-05-10T17:50:03.061Z,17.0
2018-05-10T17:55:02.575Z,17.3
2018-05-10T18:00:03.134Z,17.7
2018-05-10T18:05:02.672Z,17.7
2018-05-10T18:10:03.293Z,17.3
2018-05-10T18:15:02.886Z,16.3
2018-05-10T18:20:02.487Z,15.6
2018-05-10T18:25:03.049Z,15.1
2018-05-10T18:30:02.607Z,15.0
2018-05-10T18:35:03.247Z,14.8
2018-05-10T18:40:02.805Z,14.5
2018-05-10T18:45:03.369Z,14.3
2018-05-10T18:50:02.887Z,14.1
2018-05-10T18:55:02.501Z,13.8
2018-05-10T19:00:03.042Z,13.5
2018-05-10T19:05:02.771Z,13.5
2018-05-10T19:10:03.384Z,13.3
2018-05-10T19:15:03.012Z,13.1
2018-05-10T19:20:02.511Z,12.8
2018-05-10T19:25:03.075Z,12.8
2018-05-10T19:30:03.014Z,12.8
2018-05-10T19:35:02.628Z,12.6
2018-05-10T19:40:03.233Z,12.5
2018-05-10T19:45:02.815Z,12.3
2018-05-10T19:50:02.409Z,12.1
2018-05-10T19:55:03.019Z,12.1
2018-05-10T20:00:02.583Z,12.1
2018-05-10T20:05:03.204Z,12.1
2018-05-10T20:10:02.777Z,11.8
2018-05-10T20:15:03.361Z,11.8
2018-05-10T20:20:03.000Z,11.6
2018-05-10T20:25:02.740Z,11.6
2018-05-10T20:30:03.367Z,11.6
2018-05-10T20:35:02.948Z,11.6
2018-05-10T20:40:02.585Z,11.3
2018-05-10T20:45:03.127Z,11.3
2018-05-10T20:50:02.618Z,11.3
2018-05-10T20:55:03.263Z,11.1
2018-05-10T21:00:03.196Z,11.1
2018-05-10T21:05:02.775Z,11.0
2018-05-10T21:10:03.392Z,11.0
2018-05-10T21:15:02.526Z,10.8
2018-05-10T21:20:03.103Z,10.8
2018-05-10T21:25:02.703Z,10.8
2018-05-10T21:30:03.680Z,10.8
2018-05-10T21:35:03.268Z,10.6
2018-05-10T21:40:02.996Z,10.3
2018-05-10T21:45:02.508Z,10.3
2018-05-10T21:50:03.005Z,10.1
2018-05-10T21:55:02.590Z,10.1
2018-05-10T22:00:02.462Z,10.1
2018-05-10T22:05:02.950Z,10.1
2018-05-10T22:10:02.764Z,10.1
2018-05-10T22:15:03.327Z,10.1
2018-05-10T22:20:02.939Z,10.1
2018-05-10T22:25:02.566Z,10.1
2018-05-10T22:30:03.045Z,10.1
2018-05-10T22:35:03.002Z,10.0
2018-05-10T22:40:02.879Z,10.0
2018-05-10T22:45:03.370Z,9.8
2018-05-10T22:50:02.886Z,9.6
2018-05-10T22:55:02.664Z,9.5
2018-05-10T23:00:03.246Z,9.5
2018-05-10T23:05:03.358Z,9.6
2018-05-10T23:10:03.038Z,9.5
2018-05-10T23:15:02.525Z,9.3
2018-05-10T23:20:03.130Z,9.3
2018-05-10T23:25:02.613Z,9.1
2018-05-10T23:30:03.198Z,9.0
2018-05-10T23:35:02.782Z,9.1
2018-05-10T23:40:03.394Z,9.0
2018-05-10T23:45:03.013Z,9.0
2018-05-10T23:50:02.534Z,8.8
2018-05-10T23:55:03.084Z,8.5
